Scout — WDI8661 — position and weather

sailwx.info

Track history (hours):
 
Tides and Currents Weather Stations Pressure Air Temp Water Temp Dewpoint Dewpoint Depression Visibility Wind Speed Wind Dir Waves Ship Positions

Scout

Owner: Harley Marine Services, Inc, Seattle, WA. More information available from US FCC via Universal Licensing System and Coast Guard Vessel Documentation Center.

Last reported at 2017-Oct-18 01:13 UTC. Time now 2017-Oct-18 02:01 UTC.
Position N 29°43' W 095°14'.

Length 23 m; draft 3.3 m.

Type: Towing. MMSI: 367740860.

Date/timePositionNaut miles runAvg speedWind from/ knotsBaromVisibWave heightAir tempDewpointWater temp
2017-Oct-18 01:13N 29°43' W 095°14'0 0.0
2017-Oct-18 01:00N 29°43' W 095°14'0 0.0
2017-Oct-18 00:30N 29°43' W 095°14'0 0.0
2017-Oct-18 00:00N 29°43' W 095°14'4 6.7
2017-Oct-17 23:28N 29°45' W 095°10'6 6.8
2017-Oct-17 22:36N 29°44' W 095°03'2 8.8
2017-Oct-17 22:24N 29°44' W 095°01'2 4.3
2017-Oct-17 21:59N 29°42' W 095°03'0 0.1
2017-Oct-17 20:37N 29°42' W 095°03'0 0.0
2017-Oct-17 13:30N 29°42' W 095°03'0 0.0
2017-Oct-16 23:17N 29°42' W 095°03'0 0.0
2017-Oct-16 14:06N 29°42' W 095°03'0 0.0
2017-Oct-15 15:30N 29°42' W 095°03'0 0.0
2017-Oct-15 13:47N 29°42' W 095°03'0 0.0
2017-Oct-15 13:25N 29°42' W 095°03'0 0.0
2017-Oct-15 12:00N 29°42' W 095°03'0 0.0
2017-Oct-15 11:23N 29°42' W 095°03'0 0.0
2017-Oct-14 14:34N 29°42' W 095°03'0 0.0
2017-Oct-14 14:16N 29°42' W 095°03'0 0.0
2017-Oct-14 14:00N 29°42' W 095°03'0 0.0
2017-Oct-14 13:17N 29°42' W 095°03'0 0.0
2017-Oct-14 12:26N 29°42' W 095°03'0 0.0
2017-Oct-14 09:11N 29°42' W 095°03'0 0.0
2017-Oct-14 09:00N 29°42' W 095°03'0 0.0
2017-Oct-14 05:46N 29°42' W 095°03'0 0.0
2017-Oct-14 05:30N 29°42' W 095°03'0 0.0
2017-Oct-14 03:06N 29°42' W 095°03'0 0.0
2017-Oct-14 02:55N 29°42' W 095°03'1 3.0
2017-Oct-14 02:26N 29°42' W 095°01'3 7.6
2017-Oct-14 02:00N 29°40' W 094°59'5 9.0
2017-Oct-14 01:30N 29°36' W 094°57'  
2017-Oct-09 18:30N 29°29' W 094°52'5 9.4
2017-Oct-09 18:00N 29°33' W 094°54'4 8.9
2017-Oct-09 17:30N 29°36' W 094°57'5 9.1
2017-Oct-09 17:00N 29°41' W 094°59'5 8.5
2017-Oct-09 16:28N 29°44' W 095°02'1 0.5
2017-Oct-09 13:57N 29°45' W 095°04'3 6.5
2017-Oct-09 13:29N 29°43' W 095°01'  
Track history (hours):
 
Tides and Currents Weather Stations Pressure Air Temp Water Temp Dewpoint Dewpoint Depression Visibility Wind Speed Wind Dir Waves Ship Positions

Scout

Owner: Harley Marine Services, Inc, Seattle, WA. More information available from US FCC via Universal Licensing System and Coast Guard Vessel Documentation Center.

Last reported at 2017-Oct-18 01:13 UTC. Time now 2017-Oct-18 02:01 UTC.
Position N 29°43' W 095°14'.

Length 23 m; draft 3.3 m.

Type: Towing. MMSI: 367740860.

Date/timePositionNaut miles runAvg speedWind from/ knotsBaromVisibWave heightAir tempDewpointWater temp
2017-Oct-18 01:13N 29°43' W 095°14'0 0.0
2017-Oct-18 01:00N 29°43' W 095°14'0 0.0
2017-Oct-18 00:30N 29°43' W 095°14'0 0.0
2017-Oct-18 00:00N 29°43' W 095°14'4 6.7
2017-Oct-17 23:28N 29°45' W 095°10'6 6.8
2017-Oct-17 22:36N 29°44' W 095°03'2 8.8
2017-Oct-17 22:24N 29°44' W 095°01'2 4.3
2017-Oct-17 21:59N 29°42' W 095°03'0 0.1
2017-Oct-17 20:37N 29°42' W 095°03'0 0.0
2017-Oct-17 13:30N 29°42' W 095°03'0 0.0
2017-Oct-16 23:17N 29°42' W 095°03'0 0.0
2017-Oct-16 14:06N 29°42' W 095°03'0 0.0
2017-Oct-15 15:30N 29°42' W 095°03'0 0.0
2017-Oct-15 13:47N 29°42' W 095°03'0 0.0
2017-Oct-15 13:25N 29°42' W 095°03'0 0.0
2017-Oct-15 12:00N 29°42' W 095°03'0 0.0
2017-Oct-15 11:23N 29°42' W 095°03'0 0.0
2017-Oct-14 14:34N 29°42' W 095°03'0 0.0
2017-Oct-14 14:16N 29°42' W 095°03'0 0.0
2017-Oct-14 14:00N 29°42' W 095°03'0 0.0
2017-Oct-14 13:17N 29°42' W 095°03'0 0.0
2017-Oct-14 12:26N 29°42' W 095°03'0 0.0
2017-Oct-14 09:11N 29°42' W 095°03'0 0.0
2017-Oct-14 09:00N 29°42' W 095°03'0 0.0
2017-Oct-14 05:46N 29°42' W 095°03'0 0.0
2017-Oct-14 05:30N 29°42' W 095°03'0 0.0
2017-Oct-14 03:06N 29°42' W 095°03'0 0.0
2017-Oct-14 02:55N 29°42' W 095°03'1 3.0
2017-Oct-14 02:26N 29°42' W 095°01'3 7.6
2017-Oct-14 02:00N 29°40' W 094°59'5 9.0
2017-Oct-14 01:30N 29°36' W 094°57'  
2017-Oct-09 18:30N 29°29' W 094°52'5 9.4
2017-Oct-09 18:00N 29°33' W 094°54'4 8.9
2017-Oct-09 17:30N 29°36' W 094°57'5 9.1
2017-Oct-09 17:00N 29°41' W 094°59'5 8.5
2017-Oct-09 16:28N 29°44' W 095°02'1 0.5
2017-Oct-09 13:57N 29°45' W 095°04'3 6.5
2017-Oct-09 13:29N 29°43' W 095°01'  

Dump ship's entire track history